sensor_id;sensor_type;location;lat;lon;timestamp;P1;durP1;ratioP1;P2;durP2;ratioP2
15480;SDS011;7842;50.904;6.670;2022-07-01T00:02:10;8.00;;;5.65;;
15480;SDS011;7842;50.904;6.670;2022-07-01T00:04:35;7.07;;;5.23;;
15480;SDS011;7842;50.904;6.670;2022-07-01T00:07:01;9.33;;;5.63;;
15480;SDS011;7842;50.904;6.670;2022-07-01T00:09:27;6.97;;;5.63;;
15480;SDS011;7842;50.904;6.670;2022-07-01T00:11:52;10.15;;;6.10;;
15480;SDS011;7842;50.904;6.670;2022-07-01T00:14:18;8.37;;;6.17;;
15480;SDS011;7842;50.904;6.670;2022-07-01T00:16:44;10.00;;;6.47;;
15480;SDS011;7842;50.904;6.670;2022-07-01T00:19:10;10.07;;;6.40;;
15480;SDS011;7842;50.904;6.670;2022-07-01T00:21:35;10.60;;;6.60;;
15480;SDS011;7842;50.904;6.670;2022-07-01T00:24:01;9.07;;;6.88;;
15480;SDS011;7842;50.904;6.670;2022-07-01T00:26:27;8.98;;;6.68;;
15480;SDS011;7842;50.904;6.670;2022-07-01T00:28:52;10.07;;;7.00;;
15480;SDS011;7842;50.904;6.670;2022-07-01T00:31:18;8.13;;;6.90;;
15480;SDS011;7842;50.904;6.670;2022-07-01T00:33:43;9.20;;;6.45;;
15480;SDS011;7842;50.904;6.670;2022-07-01T00:36:09;8.33;;;6.77;;
15480;SDS011;7842;50.904;6.670;2022-07-01T00:38:35;10.50;;;7.00;;
15480;SDS011;7842;50.904;6.670;2022-07-01T00:41:00;10.18;;;7.05;;
15480;SDS011;7842;50.904;6.670;2022-07-01T00:43:26;9.27;;;6.67;;
15480;SDS011;7842;50.904;6.670;2022-07-01T00:45:52;8.30;;;6.63;;
15480;SDS011;7842;50.904;6.670;2022-07-01T00:48:21;8.77;;;6.23;;
15480;SDS011;7842;50.904;6.670;2022-07-01T00:50:47;11.02;;;7.45;;
15480;SDS011;7842;50.904;6.670;2022-07-01T00:53:14;10.40;;;6.82;;
15480;SDS011;7842;50.904;6.670;2022-07-01T00:55:42;10.18;;;7.55;;
15480;SDS011;7842;50.904;6.670;2022-07-01T00:58:09;10.57;;;7.88;;
15480;SDS011;7842;50.904;6.670;2022-07-01T01:00:35;9.45;;;7.80;;
15480;SDS011;7842;50.904;6.670;2022-07-01T01:03:04;10.55;;;8.20;;
15480;SDS011;7842;50.904;6.670;2022-07-01T01:05:31;10.25;;;8.40;;
15480;SDS011;7842;50.904;6.670;2022-07-01T01:07:57;10.05;;;7.90;;
15480;SDS011;7842;50.904;6.670;2022-07-01T01:10:23;10.05;;;8.32;;
15480;SDS011;7842;50.904;6.670;2022-07-01T01:12:50;8.77;;;7.63;;
15480;SDS011;7842;50.904;6.670;2022-07-01T01:15:19;8.60;;;7.20;;
15480;SDS011;7842;50.904;6.670;2022-07-01T01:17:45;7.32;;;6.28;;
15480;SDS011;7842;50.904;6.670;2022-07-01T01:20:17;7.15;;;5.88;;
15480;SDS011;7842;50.904;6.670;2022-07-01T01:22:44;6.28;;;5.35;;
15480;SDS011;7842;50.904;6.670;2022-07-01T01:25:10;6.05;;;5.43;;
15480;SDS011;7842;50.904;6.670;2022-07-01T01:27:36;5.77;;;5.17;;
15480;SDS011;7842;50.904;6.670;2022-07-01T01:30:05;6.30;;;5.00;;
15480;SDS011;7842;50.904;6.670;2022-07-01T01:32:32;5.87;;;5.10;;
15480;SDS011;7842;50.904;6.670;2022-07-01T01:34:58;5.47;;;4.63;;
15480;SDS011;7842;50.904;6.670;2022-07-01T01:37:23;5.47;;;4.53;;
15480;SDS011;7842;50.904;6.670;2022-07-01T01:39:49;6.63;;;4.87;;
15480;SDS011;7842;50.904;6.670;2022-07-01T01:42:15;5.03;;;4.53;;
15480;SDS011;7842;50.904;6.670;2022-07-01T01:44:40;5.90;;;4.87;;
15480;SDS011;7842;50.904;6.670;2022-07-01T01:47:06;5.43;;;4.60;;
15480;SDS011;7842;50.904;6.670;2022-07-01T01:49:32;5.45;;;4.63;;
15480;SDS011;7842;50.904;6.670;2022-07-01T01:51:58;6.32;;;4.90;;
15480;SDS011;7842;50.904;6.670;2022-07-01T01:54:27;5.97;;;4.68;;
15480;SDS011;7842;50.904;6.670;2022-07-01T01:56:54;5.55;;;5.05;;
15480;SDS011;7842;50.904;6.670;2022-07-01T01:59:20;5.72;;;4.85;;
15480;SDS011;7842;50.904;6.670;2022-07-01T02:01:46;6.38;;;4.63;;
15480;SDS011;7842;50.904;6.670;2022-07-01T02:04:11;4.90;;;4.50;;
15480;SDS011;7842;50.904;6.670;2022-07-01T02:06:37;4.63;;;4.23;;
15480;SDS011;7842;50.904;6.670;2022-07-01T02:09:06;5.03;;;4.45;;
15480;SDS011;7842;50.904;6.670;2022-07-01T02:11:31;5.05;;;4.07;;
15480;SDS011;7842;50.904;6.670;2022-07-01T02:13:57;5.13;;;3.88;;
15480;SDS011;7842;50.904;6.670;2022-07-01T02:16:23;5.70;;;3.97;;
15480;SDS011;7842;50.904;6.670;2022-07-01T02:18:48;7.03;;;4.10;;
15480;SDS011;7842;50.904;6.670;2022-07-01T02:21:14;5.18;;;3.95;;
15480;SDS011;7842;50.904;6.670;2022-07-01T02:23:39;6.13;;;4.60;;
15480;SDS011;7842;50.904;6.670;2022-07-01T02:26:05;5.27;;;4.33;;
15480;SDS011;7842;50.904;6.670;2022-07-01T02:28:31;4.70;;;3.70;;
15480;SDS011;7842;50.904;6.670;2022-07-01T02:30:57;6.30;;;3.88;;
15480;SDS011;7842;50.904;6.670;2022-07-01T02:33:22;5.30;;;3.75;;
15480;SDS011;7842;50.904;6.670;2022-07-01T02:35:48;5.67;;;3.47;;
15480;SDS011;7842;50.904;6.670;2022-07-01T02:38:14;4.88;;;3.40;;
15480;SDS011;7842;50.904;6.670;2022-07-01T02:40:40;4.22;;;3.55;;
15480;SDS011;7842;50.904;6.670;2022-07-01T02:43:06;4.30;;;3.00;;
15480;SDS011;7842;50.904;6.670;2022-07-01T02:45:32;4.75;;;3.58;;
15480;SDS011;7842;50.904;6.670;2022-07-01T02:47:58;3.95;;;3.40;;
15480;SDS011;7842;50.904;6.670;2022-07-01T02:50:24;5.88;;;3.60;;
15480;SDS011;7842;50.904;6.670;2022-07-01T02:52:49;4.37;;;3.13;;
15480;SDS011;7842;50.904;6.670;2022-07-01T02:55:15;4.00;;;3.40;;
15480;SDS011;7842;50.904;6.670;2022-07-01T02:57:41;5.15;;;3.35;;
15480;SDS011;7842;50.904;6.670;2022-07-01T03:00:08;5.63;;;3.13;;
15480;SDS011;7842;50.904;6.670;2022-07-01T03:02:36;4.65;;;3.50;;
15480;SDS011;7842;50.904;6.670;2022-07-01T03:05:02;4.00;;;3.20;;
15480;SDS011;7842;50.904;6.670;2022-07-01T03:07:28;3.95;;;3.30;;
15480;SDS011;7842;50.904;6.670;2022-07-01T03:09:54;4.00;;;3.40;;
15480;SDS011;7842;50.904;6.670;2022-07-01T03:12:20;4.63;;;3.33;;
15480;SDS011;7842;50.904;6.670;2022-07-01T03:15:10;5.73;;;3.07;;
15480;SDS011;7842;50.904;6.670;2022-07-01T03:17:38;5.30;;;3.17;;
15480;SDS011;7842;50.904;6.670;2022-07-01T03:20:06;5.45;;;3.00;;
15480;SDS011;7842;50.904;6.670;2022-07-01T03:22:33;4.30;;;2.90;;
15480;SDS011;7842;50.904;6.670;2022-07-01T03:24:59;4.90;;;3.10;;
15480;SDS011;7842;50.904;6.670;2022-07-01T03:27:26;3.85;;;2.58;;
15480;SDS011;7842;50.904;6.670;2022-07-01T03:29:52;3.38;;;2.63;;
15480;SDS011;7842;50.904;6.670;2022-07-01T03:32:18;3.00;;;2.70;;
15480;SDS011;7842;50.904;6.670;2022-07-01T03:34:47;4.63;;;2.70;;
15480;SDS011;7842;50.904;6.670;2022-07-01T03:37:14;5.73;;;2.80;;
15480;SDS011;7842;50.904;6.670;2022-07-01T03:39:41;5.67;;;2.70;;
15480;SDS011;7842;50.904;6.670;2022-07-01T03:42:07;4.75;;;2.97;;
15480;SDS011;7842;50.904;6.670;2022-07-01T03:44:34;5.45;;;3.22;;
15480;SDS011;7842;50.904;6.670;2022-07-01T03:47:00;4.25;;;3.13;;
15480;SDS011;7842;50.904;6.670;2022-07-01T03:49:26;5.75;;;3.03;;
15480;SDS011;7842;50.904;6.670;2022-07-01T03:51:52;5.40;;;3.20;;
15480;SDS011;7842;50.904;6.670;2022-07-01T03:54:18;5.68;;;3.17;;
15480;SDS011;7842;50.904;6.670;2022-07-01T03:56:58;5.38;;;3.50;;
15480;SDS011;7842;50.904;6.670;2022-07-01T03:59:31;5.25;;;3.40;;
15480;SDS011;7842;50.904;6.670;2022-07-01T04:01:58;4.93;;;3.30;;
15480;SDS011;7842;50.904;6.670;2022-07-01T04:04:25;4.38;;;3.30;;
15480;SDS011;7842;50.904;6.670;2022-07-01T04:06:52;4.80;;;3.03;;
15480;SDS011;7842;50.904;6.670;2022-07-01T04:09:19;4.05;;;2.92;;
15480;SDS011;7842;50.904;6.670;2022-07-01T04:11:45;4.93;;;3.10;;
15480;SDS011;7842;50.904;6.670;2022-07-01T04:14:13;4.35;;;3.05;;
15480;SDS011;7842;50.904;6.670;2022-07-01T04:16:39;3.00;;;2.67;;
15480;SDS011;7842;50.904;6.670;2022-07-01T04:19:04;6.27;;;3.20;;
15480;SDS011;7842;50.904;6.670;2022-07-01T04:21:30;5.97;;;2.90;;
15480;SDS011;7842;50.904;6.670;2022-07-01T04:24:15;5.15;;;2.80;;
15480;SDS011;7842;50.904;6.670;2022-07-01T04:26:43;4.97;;;2.80;;
15480;SDS011;7842;50.904;6.670;2022-07-01T04:29:09;4.72;;;2.70;;
15480;SDS011;7842;50.904;6.670;2022-07-01T04:31:36;6.85;;;2.83;;
15480;SDS011;7842;50.904;6.670;2022-07-01T04:34:02;5.00;;;2.70;;
15480;SDS011;7842;50.904;6.670;2022-07-01T04:36:28;4.20;;;2.80;;
15480;SDS011;7842;50.904;6.670;2022-07-01T04:38:54;6.95;;;2.83;;
15480;SDS011;7842;50.904;6.670;2022-07-01T04:41:20;7.97;;;3.10;;
15480;SDS011;7842;50.904;6.670;2022-07-01T04:44:04;6.07;;;2.90;;
15480;SDS011;7842;50.904;6.670;2022-07-01T04:46:30;4.10;;;2.78;;
15480;SDS011;7842;50.904;6.670;2022-07-01T04:48:56;5.88;;;2.60;;
15480;SDS011;7842;50.904;6.670;2022-07-01T04:51:21;5.80;;;3.00;;
15480;SDS011;7842;50.904;6.670;2022-07-01T04:53:47;4.78;;;2.78;;
15480;SDS011;7842;50.904;6.670;2022-07-01T04:56:13;4.18;;;2.63;;
15480;SDS011;7842;50.904;6.670;2022-07-01T04:58:39;5.15;;;3.00;;
15480;SDS011;7842;50.904;6.670;2022-07-01T05:01:05;3.47;;;2.70;;
15480;SDS011;7842;50.904;6.670;2022-07-01T05:03:30;5.37;;;3.00;;
15480;SDS011;7842;50.904;6.670;2022-07-01T05:05:56;5.13;;;3.28;;
15480;SDS011;7842;50.904;6.670;2022-07-01T05:08:21;4.90;;;2.90;;
15480;SDS011;7842;50.904;6.670;2022-07-01T05:10:47;4.27;;;3.00;;
15480;SDS011;7842;50.904;6.670;2022-07-01T05:13:13;4.63;;;3.17;;
15480;SDS011;7842;50.904;6.670;2022-07-01T05:15:38;4.28;;;3.10;;
15480;SDS011;7842;50.904;6.670;2022-07-01T05:18:04;6.07;;;3.37;;
15480;SDS011;7842;50.904;6.670;2022-07-01T05:20:48;7.60;;;3.47;;
15480;SDS011;7842;50.904;6.670;2022-07-01T05:23:32;6.88;;;3.35;;
15480;SDS011;7842;50.904;6.670;2022-07-01T05:25:58;6.43;;;3.60;;
15480;SDS011;7842;50.904;6.670;2022-07-01T05:28:23;5.90;;;3.30;;
15480;SDS011;7842;50.904;6.670;2022-07-01T05:30:49;5.57;;;3.10;;
15480;SDS011;7842;50.904;6.670;2022-07-01T05:33:14;4.47;;;3.07;;
15480;SDS011;7842;50.904;6.670;2022-07-01T05:35:40;4.40;;;2.90;;
15480;SDS011;7842;50.904;6.670;2022-07-01T05:38:06;3.92;;;2.80;;
15480;SDS011;7842;50.904;6.670;2022-07-01T05:40:31;5.60;;;3.07;;
15480;SDS011;7842;50.904;6.670;2022-07-01T05:42:57;4.70;;;2.90;;
15480;SDS011;7842;50.904;6.670;2022-07-01T05:45:23;7.10;;;3.27;;
15480;SDS011;7842;50.904;6.670;2022-07-01T05:47:48;5.07;;;3.17;;
15480;SDS011;7842;50.904;6.670;2022-07-01T05:50:15;5.05;;;2.92;;
15480;SDS011;7842;50.904;6.670;2022-07-01T05:52:41;5.30;;;3.20;;
15480;SDS011;7842;50.904;6.670;2022-07-01T05:55:09;5.30;;;2.90;;
15480;SDS011;7842;50.904;6.670;2022-07-01T05:57:35;4.88;;;2.90;;
15480;SDS011;7842;50.904;6.670;2022-07-01T06:00:01;4.28;;;2.90;;
15480;SDS011;7842;50.904;6.670;2022-07-01T06:02:27;5.30;;;2.92;;
15480;SDS011;7842;50.904;6.670;2022-07-01T06:04:53;5.17;;;2.90;;
15480;SDS011;7842;50.904;6.670;2022-07-01T06:07:18;4.03;;;2.90;;
15480;SDS011;7842;50.904;6.670;2022-07-01T06:09:44;4.40;;;2.67;;
15480;SDS011;7842;50.904;6.670;2022-07-01T06:12:10;4.72;;;3.03;;
15480;SDS011;7842;50.904;6.670;2022-07-01T06:14:36;5.05;;;2.80;;
15480;SDS011;7842;50.904;6.670;2022-07-01T06:17:02;6.88;;;3.00;;
15480;SDS011;7842;50.904;6.670;2022-07-01T06:19:29;4.78;;;2.88;;
15480;SDS011;7842;50.904;6.670;2022-07-01T06:21:54;5.45;;;2.85;;
15480;SDS011;7842;50.904;6.670;2022-07-01T06:24:21;6.40;;;3.00;;
15480;SDS011;7842;50.904;6.670;2022-07-01T06:26:47;6.18;;;3.00;;
15480;SDS011;7842;50.904;6.670;2022-07-01T06:29:13;4.15;;;2.97;;
15480;SDS011;7842;50.904;6.670;2022-07-01T06:31:39;6.63;;;3.00;;
15480;SDS011;7842;50.904;6.670;2022-07-01T06:34:04;3.67;;;2.75;;
15480;SDS011;7842;50.904;6.670;2022-07-01T06:36:30;4.37;;;2.70;;
15480;SDS011;7842;50.904;6.670;2022-07-01T06:38:55;4.30;;;2.53;;
15480;SDS011;7842;50.904;6.670;2022-07-01T06:41:21;3.80;;;3.00;;
15480;SDS011;7842;50.904;6.670;2022-07-01T06:43:53;5.13;;;3.17;;
15480;SDS011;7842;50.904;6.670;2022-07-01T06:46:20;7.50;;;3.15;;
15480;SDS011;7842;50.904;6.670;2022-07-01T06:48:46;3.93;;;2.67;;
15480;SDS011;7842;50.904;6.670;2022-07-01T06:51:12;4.57;;;2.97;;
15480;SDS011;7842;50.904;6.670;2022-07-01T06:53:38;3.75;;;2.60;;
15480;SDS011;7842;50.904;6.670;2022-07-01T06:56:04;5.95;;;2.90;;
15480;SDS011;7842;50.904;6.670;2022-07-01T06:58:30;5.55;;;2.75;;
15480;SDS011;7842;50.904;6.670;2022-07-01T07:00:56;3.87;;;2.90;;
15480;SDS011;7842;50.904;6.670;2022-07-01T07:03:21;3.58;;;2.80;;
15480;SDS011;7842;50.904;6.670;2022-07-01T07:05:47;5.25;;;3.30;;
15480;SDS011;7842;50.904;6.670;2022-07-01T07:08:13;5.30;;;3.10;;
15480;SDS011;7842;50.904;6.670;2022-07-01T07:10:38;5.43;;;3.37;;
15480;SDS011;7842;50.904;6.670;2022-07-01T07:13:04;5.13;;;4.00;;
15480;SDS011;7842;50.904;6.670;2022-07-01T07:15:30;4.78;;;3.67;;
15480;SDS011;7842;50.904;6.670;2022-07-01T07:17:55;5.30;;;3.80;;
15480;SDS011;7842;50.904;6.670;2022-07-01T07:20:22;5.97;;;4.00;;
15480;SDS011;7842;50.904;6.670;2022-07-01T07:22:49;6.97;;;4.28;;
15480;SDS011;7842;50.904;6.670;2022-07-01T07:25:14;7.23;;;4.70;;
15480;SDS011;7842;50.904;6.670;2022-07-01T07:27:40;7.33;;;4.67;;
15480;SDS011;7842;50.904;6.670;2022-07-01T07:30:06;5.45;;;4.50;;
15480;SDS011;7842;50.904;6.670;2022-07-01T07:32:31;5.43;;;4.40;;
15480;SDS011;7842;50.904;6.670;2022-07-01T07:34:57;6.70;;;4.43;;
15480;SDS011;7842;50.904;6.670;2022-07-01T07:37:23;6.83;;;4.63;;
15480;SDS011;7842;50.904;6.670;2022-07-01T07:39:48;7.57;;;4.57;;
15480;SDS011;7842;50.904;6.670;2022-07-01T07:42:14;5.03;;;4.30;;
15480;SDS011;7842;50.904;6.670;2022-07-01T07:44:39;6.57;;;4.30;;
15480;SDS011;7842;50.904;6.670;2022-07-01T07:47:05;7.55;;;4.40;;
15480;SDS011;7842;50.904;6.670;2022-07-01T07:49:31;7.10;;;4.43;;
15480;SDS011;7842;50.904;6.670;2022-07-01T07:51:56;7.18;;;3.90;;
15480;SDS011;7842;50.904;6.670;2022-07-01T07:54:22;6.18;;;3.90;;
15480;SDS011;7842;50.904;6.670;2022-07-01T07:56:47;6.23;;;3.93;;
15480;SDS011;7842;50.904;6.670;2022-07-01T07:59:13;5.20;;;3.70;;
15480;SDS011;7842;50.904;6.670;2022-07-01T08:01:39;5.63;;;3.65;;
15480;SDS011;7842;50.904;6.670;2022-07-01T08:04:04;6.95;;;3.60;;
15480;SDS011;7842;50.904;6.670;2022-07-01T08:06:30;6.30;;;3.60;;
15480;SDS011;7842;50.904;6.670;2022-07-01T08:08:56;6.63;;;4.20;;
15480;SDS011;7842;50.904;6.670;2022-07-01T08:11:22;4.85;;;3.47;;
15480;SDS011;7842;50.904;6.670;2022-07-01T08:13:47;4.75;;;3.50;;
15480;SDS011;7842;50.904;6.670;2022-07-01T08:16:13;4.73;;;3.60;;
15480;SDS011;7842;50.904;6.670;2022-07-01T08:18:39;5.90;;;3.60;;
15480;SDS011;7842;50.904;6.670;2022-07-01T08:21:04;5.43;;;3.53;;
15480;SDS011;7842;50.904;6.670;2022-07-01T08:23:30;5.23;;;4.00;;
15480;SDS011;7842;50.904;6.670;2022-07-01T08:25:55;5.07;;;4.03;;
15480;SDS011;7842;50.904;6.670;2022-07-01T08:28:21;5.10;;;4.00;;
15480;SDS011;7842;50.904;6.670;2022-07-01T08:30:47;4.97;;;3.67;;
15480;SDS011;7842;50.904;6.670;2022-07-01T08:33:13;5.37;;;3.97;;
15480;SDS011;7842;50.904;6.670;2022-07-01T08:35:39;5.68;;;4.20;;
15480;SDS011;7842;50.904;6.670;2022-07-01T08:38:05;5.67;;;3.87;;
15480;SDS011;7842;50.904;6.670;2022-07-01T08:40:31;6.03;;;3.97;;
15480;SDS011;7842;50.904;6.670;2022-07-01T08:42:58;5.93;;;3.97;;
15480;SDS011;7842;50.904;6.670;2022-07-01T08:45:26;6.75;;;4.30;;
15480;SDS011;7842;50.904;6.670;2022-07-01T08:47:54;5.82;;;4.10;;
15480;SDS011;7842;50.904;6.670;2022-07-01T08:50:22;5.35;;;4.20;;
15480;SDS011;7842;50.904;6.670;2022-07-01T08:52:52;5.10;;;4.57;;
15480;SDS011;7842;50.904;6.670;2022-07-01T08:55:18;5.60;;;4.20;;
15480;SDS011;7842;50.904;6.670;2022-07-01T08:57:44;5.38;;;4.00;;
15480;SDS011;7842;50.904;6.670;2022-07-01T09:00:10;5.60;;;4.20;;
15480;SDS011;7842;50.904;6.670;2022-07-01T09:02:53;4.97;;;4.15;;
15480;SDS011;7842;50.904;6.670;2022-07-01T09:05:19;5.03;;;3.97;;
15480;SDS011;7842;50.904;6.670;2022-07-01T09:07:45;5.28;;;3.97;;
15480;SDS011;7842;50.904;6.670;2022-07-01T09:10:18;4.68;;;3.70;;
15480;SDS011;7842;50.904;6.670;2022-07-01T09:12:47;5.25;;;4.35;;
15480;SDS011;7842;50.904;6.670;2022-07-01T09:17:52;6.65;;;4.28;;
15480;SDS011;7842;50.904;6.670;2022-07-01T09:20:22;5.68;;;4.03;;
15480;SDS011;7842;50.904;6.670;2022-07-01T09:23:02;5.53;;;3.83;;
15480;SDS011;7842;50.904;6.670;2022-07-01T09:25:28;5.60;;;4.00;;
15480;SDS011;7842;50.904;6.670;2022-07-01T09:30:50;5.95;;;4.00;;
15480;SDS011;7842;50.904;6.670;2022-07-01T09:33:25;6.55;;;3.75;;
15480;SDS011;7842;50.904;6.670;2022-07-01T09:35:52;6.75;;;3.80;;
15480;SDS011;7842;50.904;6.670;2022-07-01T09:38:22;4.40;;;3.15;;
15480;SDS011;7842;50.904;6.670;2022-07-01T09:40:50;7.05;;;3.30;;
15480;SDS011;7842;50.904;6.670;2022-07-01T09:43:27;5.15;;;2.95;;
15480;SDS011;7842;50.904;6.670;2022-07-01T09:46:02;4.40;;;3.07;;
15480;SDS011;7842;50.904;6.670;2022-07-01T09:50:58;4.40;;;2.77;;
15480;SDS011;7842;50.904;6.670;2022-07-01T09:53:24;5.20;;;2.65;;
15480;SDS011;7842;50.904;6.670;2022-07-01T09:55:50;4.30;;;2.60;;
15480;SDS011;7842;50.904;6.670;2022-07-01T09:58:16;5.25;;;2.88;;
15480;SDS011;7842;50.904;6.670;2022-07-01T10:00:42;4.30;;;2.50;;
15480;SDS011;7842;50.904;6.670;2022-07-01T10:03:09;5.78;;;2.60;;
15480;SDS011;7842;50.904;6.670;2022-07-01T10:05:42;3.88;;;2.40;;
15480;SDS011;7842;50.904;6.670;2022-07-01T10:14:08;5.25;;;2.70;;
15480;SDS011;7842;50.904;6.670;2022-07-01T10:16:37;5.07;;;2.70;;
15480;SDS011;7842;50.904;6.670;2022-07-01T10:19:23;4.28;;;2.33;;
15480;SDS011;7842;50.904;6.670;2022-07-01T10:21:51;4.93;;;2.80;;
15480;SDS011;7842;50.904;6.670;2022-07-01T10:24:21;5.45;;;2.70;;
15480;SDS011;7842;50.904;6.670;2022-07-01T10:26:47;4.40;;;3.00;;
15480;SDS011;7842;50.904;6.670;2022-07-01T10:32:07;3.97;;;3.10;;
15480;SDS011;7842;50.904;6.670;2022-07-01T10:34:40;4.20;;;3.47;;
15480;SDS011;7842;50.904;6.670;2022-07-01T10:37:08;5.30;;;3.75;;
15480;SDS011;7842;50.904;6.670;2022-07-01T10:42:33;4.57;;;3.77;;
15480;SDS011;7842;50.904;6.670;2022-07-01T10:45:19;3.00;;;2.70;;
15480;SDS011;7842;50.904;6.670;2022-07-01T10:47:44;4.57;;;3.22;;
15480;SDS011;7842;50.904;6.670;2022-07-01T10:50:11;3.43;;;2.83;;
15480;SDS011;7842;50.904;6.670;2022-07-01T10:53:17;5.32;;;3.15;;
15480;SDS011;7842;50.904;6.670;2022-07-01T10:55:39;3.53;;;2.67;;
15480;SDS011;7842;50.904;6.670;2022-07-01T10:58:09;4.68;;;2.88;;
15480;SDS011;7842;50.904;6.670;2022-07-01T11:00:35;6.93;;;2.45;;
15480;SDS011;7842;50.904;6.670;2022-07-01T11:03:05;4.50;;;2.20;;
15480;SDS011;7842;50.904;6.670;2022-07-01T11:05:35;4.22;;;2.20;;
15480;SDS011;7842;50.904;6.670;2022-07-01T11:08:04;3.85;;;2.20;;
15480;SDS011;7842;50.904;6.670;2022-07-01T11:10:31;3.60;;;2.30;;
15480;SDS011;7842;50.904;6.670;2022-07-01T11:12:57;3.15;;;2.40;;
15480;SDS011;7842;50.904;6.670;2022-07-01T11:15:23;3.75;;;2.50;;
15480;SDS011;7842;50.904;6.670;2022-07-01T11:17:51;3.63;;;2.30;;
15480;SDS011;7842;50.904;6.670;2022-07-01T11:20:16;2.80;;;2.20;;
15480;SDS011;7842;50.904;6.670;2022-07-01T11:22:42;3.83;;;2.30;;
15480;SDS011;7842;50.904;6.670;2022-07-01T11:25:11;3.30;;;2.63;;
15480;SDS011;7842;50.904;6.670;2022-07-01T11:27:38;4.07;;;2.60;;
15480;SDS011;7842;50.904;6.670;2022-07-01T11:30:08;4.95;;;2.58;;
15480;SDS011;7842;50.904;6.670;2022-07-01T11:32:38;6.25;;;2.47;;
15480;SDS011;7842;50.904;6.670;2022-07-01T11:35:07;3.40;;;2.30;;
15480;SDS011;7842;50.904;6.670;2022-07-01T11:38:06;2.28;;;2.08;;
15480;SDS011;7842;50.904;6.670;2022-07-01T11:40:53;3.25;;;2.15;;
15480;SDS011;7842;50.904;6.670;2022-07-01T11:43:20;2.65;;;2.17;;
15480;SDS011;7842;50.904;6.670;2022-07-01T11:45:47;3.40;;;2.00;;
15480;SDS011;7842;50.904;6.670;2022-07-01T11:48:27;3.75;;;2.15;;
15480;SDS011;7842;50.904;6.670;2022-07-01T11:51:05;2.88;;;1.88;;
15480;SDS011;7842;50.904;6.670;2022-07-01T11:53:41;3.13;;;1.95;;
15480;SDS011;7842;50.904;6.670;2022-07-01T11:56:09;3.00;;;1.80;;
15480;SDS011;7842;50.904;6.670;2022-07-01T12:01:07;2.92;;;2.15;;
15480;SDS011;7842;50.904;6.670;2022-07-01T12:03:33;2.75;;;1.40;;
15480;SDS011;7842;50.904;6.670;2022-07-01T12:06:01;2.25;;;1.52;;
15480;SDS011;7842;50.904;6.670;2022-07-01T12:08:26;4.32;;;1.80;;
15480;SDS011;7842;50.904;6.670;2022-07-01T12:10:52;2.65;;;1.70;;
15480;SDS011;7842;50.904;6.670;2022-07-01T12:13:25;2.45;;;1.30;;
15480;SDS011;7842;50.904;6.670;2022-07-01T12:15:51;2.97;;;1.50;;
15480;SDS011;7842;50.904;6.670;2022-07-01T12:18:17;2.80;;;1.60;;
15480;SDS011;7842;50.904;6.670;2022-07-01T12:20:50;4.60;;;1.63;;
15480;SDS011;7842;50.904;6.670;2022-07-01T12:23:19;3.33;;;1.48;;
15480;SDS011;7842;50.904;6.670;2022-07-01T12:25:48;3.30;;;1.60;;
15480;SDS011;7842;50.904;6.670;2022-07-01T12:31:07;4.15;;;1.60;;
15480;SDS011;7842;50.904;6.670;2022-07-01T12:33:35;2.65;;;1.30;;
15480;SDS011;7842;50.904;6.670;2022-07-01T12:36:02;2.88;;;1.23;;
15480;SDS011;7842;50.904;6.670;2022-07-01T12:38:29;2.75;;;1.42;;
15480;SDS011;7842;50.904;6.670;2022-07-01T12:40:55;1.92;;;1.20;;
15480;SDS011;7842;50.904;6.670;2022-07-01T12:43:28;3.22;;;1.48;;
15480;SDS011;7842;50.904;6.670;2022-07-01T12:45:57;2.67;;;1.50;;
15480;SDS011;7842;50.904;6.670;2022-07-01T12:48:24;3.57;;;1.50;;
15480;SDS011;7842;50.904;6.670;2022-07-01T12:50:56;3.85;;;1.40;;
15480;SDS011;7842;50.904;6.670;2022-07-01T12:53:23;3.25;;;1.10;;
15480;SDS011;7842;50.904;6.670;2022-07-01T12:55:51;3.20;;;1.20;;
15480;SDS011;7842;50.904;6.670;2022-07-01T12:58:23;2.65;;;1.10;;
15480;SDS011;7842;50.904;6.670;2022-07-01T13:00:51;2.03;;;1.10;;
15480;SDS011;7842;50.904;6.670;2022-07-01T13:03:21;1.85;;;1.15;;
15480;SDS011;7842;50.904;6.670;2022-07-01T13:05:48;2.65;;;1.30;;
15480;SDS011;7842;50.904;6.670;2022-07-01T13:08:14;4.20;;;1.40;;
15480;SDS011;7842;50.904;6.670;2022-07-01T13:10:40;2.53;;;1.05;;
15480;SDS011;7842;50.904;6.670;2022-07-01T13:13:07;2.03;;;1.05;;
15480;SDS011;7842;50.904;6.670;2022-07-01T13:15:33;3.15;;;1.20;;
15480;SDS011;7842;50.904;6.670;2022-07-01T13:17:59;2.55;;;1.17;;
15480;SDS011;7842;50.904;6.670;2022-07-01T13:20:25;2.38;;;1.13;;
15480;SDS011;7842;50.904;6.670;2022-07-01T13:22:51;2.75;;;1.02;;
15480;SDS011;7842;50.904;6.670;2022-07-01T13:25:18;2.45;;;1.00;;
15480;SDS011;7842;50.904;6.670;2022-07-01T13:27:44;7.00;;;1.30;;
15480;SDS011;7842;50.904;6.670;2022-07-01T13:30:10;3.30;;;1.07;;
15480;SDS011;7842;50.904;6.670;2022-07-01T13:32:37;1.88;;;1.10;;
15480;SDS011;7842;50.904;6.670;2022-07-01T13:35:04;3.08;;;1.10;;
15480;SDS011;7842;50.904;6.670;2022-07-01T13:37:31;2.78;;;0.90;;
15480;SDS011;7842;50.904;6.670;2022-07-01T13:39:56;2.92;;;1.05;;
15480;SDS011;7842;50.904;6.670;2022-07-01T13:42:25;1.70;;;0.95;;
15480;SDS011;7842;50.904;6.670;2022-07-01T13:44:50;2.38;;;1.00;;
15480;SDS011;7842;50.904;6.670;2022-07-01T13:47:16;2.47;;;1.00;;
15480;SDS011;7842;50.904;6.670;2022-07-01T13:49:42;2.65;;;1.00;;
15480;SDS011;7842;50.904;6.670;2022-07-01T13:52:08;3.75;;;1.33;;
15480;SDS011;7842;50.904;6.670;2022-07-01T13:54:34;1.95;;;0.98;;
15480;SDS011;7842;50.904;6.670;2022-07-01T13:57:00;1.90;;;1.00;;
15480;SDS011;7842;50.904;6.670;2022-07-01T13:59:25;3.78;;;1.00;;
15480;SDS011;7842;50.904;6.670;2022-07-01T14:01:51;2.58;;;1.02;;
15480;SDS011;7842;50.904;6.670;2022-07-01T14:04:17;3.83;;;1.13;;
15480;SDS011;7842;50.904;6.670;2022-07-01T14:06:42;1.95;;;1.00;;
15480;SDS011;7842;50.904;6.670;2022-07-01T14:09:08;1.80;;;0.98;;
15480;SDS011;7842;50.904;6.670;2022-07-01T14:11:34;2.33;;;1.10;;
15480;SDS011;7842;50.904;6.670;2022-07-01T14:14:00;2.47;;;1.10;;
15480;SDS011;7842;50.904;6.670;2022-07-01T14:16:25;1.90;;;1.00;;
15480;SDS011;7842;50.904;6.670;2022-07-01T14:18:54;3.53;;;1.30;;
15480;SDS011;7842;50.904;6.670;2022-07-01T14:21:21;2.40;;;1.10;;
15480;SDS011;7842;50.904;6.670;2022-07-01T14:23:47;1.95;;;0.95;;
15480;SDS011;7842;50.904;6.670;2022-07-01T14:26:12;1.57;;;1.00;;
15480;SDS011;7842;50.904;6.670;2022-07-01T14:28:38;1.85;;;1.00;;
15480;SDS011;7842;50.904;6.670;2022-07-01T14:31:04;2.75;;;1.10;;
15480;SDS011;7842;50.904;6.670;2022-07-01T14:33:31;3.03;;;1.10;;
15480;SDS011;7842;50.904;6.670;2022-07-01T14:35:57;3.38;;;1.10;;
15480;SDS011;7842;50.904;6.670;2022-07-01T14:38:23;3.00;;;1.20;;
15480;SDS011;7842;50.904;6.670;2022-07-01T14:40:49;4.47;;;1.30;;
15480;SDS011;7842;50.904;6.670;2022-07-01T14:43:15;3.17;;;1.30;;
15480;SDS011;7842;50.904;6.670;2022-07-01T14:45:40;3.53;;;1.07;;
15480;SDS011;7842;50.904;6.670;2022-07-01T14:48:07;2.90;;;1.10;;
15480;SDS011;7842;50.904;6.670;2022-07-01T14:50:33;2.95;;;1.00;;
15480;SDS011;7842;50.904;6.670;2022-07-01T14:52:59;3.50;;;1.02;;
15480;SDS011;7842;50.904;6.670;2022-07-01T14:55:26;3.38;;;1.52;;
15480;SDS011;7842;50.904;6.670;2022-07-01T14:57:53;3.40;;;1.10;;
15480;SDS011;7842;50.904;6.670;2022-07-01T15:00:19;4.00;;;1.37;;
15480;SDS011;7842;50.904;6.670;2022-07-01T15:02:46;2.28;;;1.00;;
15480;SDS011;7842;50.904;6.670;2022-07-01T15:05:11;4.68;;;1.40;;
15480;SDS011;7842;50.904;6.670;2022-07-01T15:07:37;4.27;;;1.40;;
15480;SDS011;7842;50.904;6.670;2022-07-01T15:10:04;2.60;;;1.10;;
15480;SDS011;7842;50.904;6.670;2022-07-01T15:12:31;1.73;;;1.10;;
15480;SDS011;7842;50.904;6.670;2022-07-01T15:14:56;1.90;;;1.10;;
15480;SDS011;7842;50.904;6.670;2022-07-01T15:17:22;3.05;;;1.10;;
15480;SDS011;7842;50.904;6.670;2022-07-01T15:19:48;2.50;;;0.90;;
15480;SDS011;7842;50.904;6.670;2022-07-01T15:22:14;2.27;;;1.10;;
15480;SDS011;7842;50.904;6.670;2022-07-01T15:24:39;2.67;;;1.10;;
15480;SDS011;7842;50.904;6.670;2022-07-01T15:27:05;2.50;;;1.20;;